sensor_id;sensor_type;location;lat;lon;timestamp;pressure;altitude;pressure_sealevel;temperature;humidity
13934;BME280;7039;52.168;9.866;2023-06-19T00:01:25;100156.81;;;23.30;53.40
13934;BME280;7039;52.168;9.866;2023-06-19T00:03:52;100148.69;;;23.24;53.83
13934;BME280;7039;52.168;9.866;2023-06-19T00:06:18;100150.81;;;23.20;54.38
13934;BME280;7039;52.168;9.866;2023-06-19T00:08:45;100150.66;;;23.22;54.15
13934;BME280;7039;52.168;9.866;2023-06-19T00:11:11;100146.84;;;23.08;54.16
13934;BME280;7039;52.168;9.866;2023-06-19T00:13:39;100147.13;;;22.97;54.58
13934;BME280;7039;52.168;9.866;2023-06-19T00:16:06;100145.31;;;22.97;54.88
13934;BME280;7039;52.168;9.866;2023-06-19T00:18:32;100140.69;;;22.99;54.82
13934;BME280;7039;52.168;9.866;2023-06-19T00:21:04;100135.88;;;23.03;54.91
13934;BME280;7039;52.168;9.866;2023-06-19T00:23:31;100135.88;;;23.03;54.88
13934;BME280;7039;52.168;9.866;2023-06-19T00:25:58;100132.72;;;22.99;55.18
13934;BME280;7039;52.168;9.866;2023-06-19T00:28:26;100132.50;;;22.92;54.87
13934;BME280;7039;52.168;9.866;2023-06-19T00:30:54;100135.88;;;23.03;54.81
13934;BME280;7039;52.168;9.866;2023-06-19T00:33:20;100131.53;;;23.02;55.00
13934;BME280;7039;52.168;9.866;2023-06-19T00:35:47;100122.88;;;23.00;55.08
13934;BME280;7039;52.168;9.866;2023-06-19T00:38:13;100125.41;;;23.01;55.26
13934;BME280;7039;52.168;9.866;2023-06-19T00:40:40;100115.22;;;22.88;54.67
13934;BME280;7039;52.168;9.866;2023-06-19T00:43:06;100112.91;;;23.02;54.92
13934;BME280;7039;52.168;9.866;2023-06-19T00:45:33;100114.38;;;22.88;55.36
13934;BME280;7039;52.168;9.866;2023-06-19T00:48:01;100109.72;;;22.73;55.93
13934;BME280;7039;52.168;9.866;2023-06-19T00:50:28;100105.72;;;22.78;56.45
13934;BME280;7039;52.168;9.866;2023-06-19T00:52:54;100103.91;;;22.70;56.22
13934;BME280;7039;52.168;9.866;2023-06-19T00:55:22;100106.22;;;22.73;56.27
13934;BME280;7039;52.168;9.866;2023-06-19T00:57:49;100105.09;;;22.76;57.11
13934;BME280;7039;52.168;9.866;2023-06-19T01:00:16;100105.88;;;22.68;57.86
13934;BME280;7039;52.168;9.866;2023-06-19T01:02:43;100101.56;;;22.67;57.45
13934;BME280;7039;52.168;9.866;2023-06-19T01:05:11;100092.75;;;22.66;57.84
13934;BME280;7039;52.168;9.866;2023-06-19T01:07:43;100092.25;;;22.63;58.66
13934;BME280;7039;52.168;9.866;2023-06-19T01:10:14;100094.41;;;22.59;58.34
13934;BME280;7039;52.168;9.866;2023-06-19T01:12:45;100097.22;;;22.49;58.83
13934;BME280;7039;52.168;9.866;2023-06-19T01:15:16;100096.22;;;22.50;58.28
13934;BME280;7039;52.168;9.866;2023-06-19T01:17:43;100097.38;;;22.48;59.12
13934;BME280;7039;52.168;9.866;2023-06-19T01:20:13;100099.22;;;22.47;59.32
13934;BME280;7039;52.168;9.866;2023-06-19T01:22:41;100088.09;;;22.44;58.83
13934;BME280;7039;52.168;9.866;2023-06-19T01:25:09;100091.25;;;22.39;58.84
13934;BME280;7039;52.168;9.866;2023-06-19T01:27:36;100089.53;;;22.30;59.30
13934;BME280;7039;52.168;9.866;2023-06-19T01:30:04;100091.53;;;22.28;59.21
13934;BME280;7039;52.168;9.866;2023-06-19T01:32:33;100084.88;;;22.24;59.50
13934;BME280;7039;52.168;9.866;2023-06-19T01:35:05;100082.72;;;22.27;59.38
13934;BME280;7039;52.168;9.866;2023-06-19T01:37:34;100077.25;;;22.29;59.59
13934;BME280;7039;52.168;9.866;2023-06-19T01:40:03;100080.41;;;22.24;59.39
13934;BME280;7039;52.168;9.866;2023-06-19T01:42:32;100081.00;;;22.18;59.92
13934;BME280;7039;52.168;9.866;2023-06-19T01:45:00;100081.44;;;21.97;60.03
13934;BME280;7039;52.168;9.866;2023-06-19T01:47:28;100081.84;;;21.76;60.66
13934;BME280;7039;52.168;9.866;2023-06-19T01:49:55;100079.13;;;21.60;61.30
13934;BME280;7039;52.168;9.866;2023-06-19T01:52:21;100088.22;;;21.57;61.42
13934;BME280;7039;52.168;9.866;2023-06-19T01:54:48;100089.31;;;21.46;62.51
13934;BME280;7039;52.168;9.866;2023-06-19T01:57:16;100093.41;;;21.41;63.01
13934;BME280;7039;52.168;9.866;2023-06-19T01:59:42;100094.09;;;21.43;62.75
13934;BME280;7039;52.168;9.866;2023-06-19T02:02:09;100098.66;;;21.51;61.89
13934;BME280;7039;52.168;9.866;2023-06-19T02:04:36;100100.72;;;21.65;61.91
13934;BME280;7039;52.168;9.866;2023-06-19T02:07:02;100095.94;;;21.77;61.75
13934;BME280;7039;52.168;9.866;2023-06-19T02:09:29;100097.81;;;21.84;61.03
13934;BME280;7039;52.168;9.866;2023-06-19T02:11:55;100096.97;;;21.84;61.29
13934;BME280;7039;52.168;9.866;2023-06-19T02:14:23;100099.53;;;22.02;61.22
13934;BME280;7039;52.168;9.866;2023-06-19T02:16:50;100090.22;;;21.98;61.50
13934;BME280;7039;52.168;9.866;2023-06-19T02:19:16;100090.91;;;22.00;60.96
13934;BME280;7039;52.168;9.866;2023-06-19T02:21:42;100082.81;;;21.41;62.53
13934;BME280;7039;52.168;9.866;2023-06-19T02:24:09;100084.81;;;21.73;61.65
13934;BME280;7039;52.168;9.866;2023-06-19T02:26:35;100085.66;;;21.74;61.74
13934;BME280;7039;52.168;9.866;2023-06-19T02:29:02;100081.28;;;21.99;61.37
13934;BME280;7039;52.168;9.866;2023-06-19T02:31:29;100078.69;;;22.15;60.46
13934;BME280;7039;52.168;9.866;2023-06-19T02:33:56;100064.22;;;22.18;60.59
13934;BME280;7039;52.168;9.866;2023-06-19T02:36:22;100058.25;;;22.16;60.27
13934;BME280;7039;52.168;9.866;2023-06-19T02:38:49;100057.19;;;21.92;60.46
13934;BME280;7039;52.168;9.866;2023-06-19T02:41:16;100044.50;;;21.78;60.51
13934;BME280;7039;52.168;9.866;2023-06-19T02:43:44;100057.38;;;22.07;58.53
13934;BME280;7039;52.168;9.866;2023-06-19T02:46:11;100060.09;;;22.15;57.96
13934;BME280;7039;52.168;9.866;2023-06-19T02:48:38;100052.94;;;22.16;57.37
13934;BME280;7039;52.168;9.866;2023-06-19T02:51:05;100039.53;;;22.25;57.28
13934;BME280;7039;52.168;9.866;2023-06-19T02:53:31;100043.72;;;22.36;56.45
13934;BME280;7039;52.168;9.866;2023-06-19T02:55:58;100039.59;;;22.42;54.93
13934;BME280;7039;52.168;9.866;2023-06-19T02:58:24;100040.88;;;22.46;56.04
13934;BME280;7039;52.168;9.866;2023-06-19T03:00:52;100033.94;;;22.45;55.98
13934;BME280;7039;52.168;9.866;2023-06-19T03:03:18;100041.41;;;22.58;55.27
13934;BME280;7039;52.168;9.866;2023-06-19T03:05:46;100035.44;;;22.64;54.48
13934;BME280;7039;52.168;9.866;2023-06-19T03:08:13;100036.44;;;22.63;54.46
13934;BME280;7039;52.168;9.866;2023-06-19T03:10:39;100038.25;;;22.70;54.04
13934;BME280;7039;52.168;9.866;2023-06-19T03:13:05;100045.56;;;22.77;53.02
13934;BME280;7039;52.168;9.866;2023-06-19T03:15:32;100042.72;;;22.86;52.53
13934;BME280;7039;52.168;9.866;2023-06-19T03:17:58;100052.72;;;22.92;51.83
13934;BME280;7039;52.168;9.866;2023-06-19T03:20:28;100054.56;;;22.92;52.86
13934;BME280;7039;52.168;9.866;2023-06-19T03:22:56;100055.41;;;23.01;54.38
13934;BME280;7039;52.168;9.866;2023-06-19T03:25:22;100049.59;;;23.05;55.02
13934;BME280;7039;52.168;9.866;2023-06-19T03:27:49;100059.72;;;23.10;54.41
13934;BME280;7039;52.168;9.866;2023-06-19T03:30:15;100057.22;;;23.08;54.83
13934;BME280;7039;52.168;9.866;2023-06-19T03:32:43;100060.88;;;22.99;55.74
13934;BME280;7039;52.168;9.866;2023-06-19T03:35:10;100053.72;;;22.83;55.60
13934;BME280;7039;52.168;9.866;2023-06-19T03:37:36;100052.22;;;22.97;54.94
13934;BME280;7039;52.168;9.866;2023-06-19T03:40:05;100051.75;;;23.10;54.41
13934;BME280;7039;52.168;9.866;2023-06-19T03:42:33;100049.75;;;23.04;54.97
13934;BME280;7039;52.168;9.866;2023-06-19T03:45:00;100051.41;;;23.13;55.25
13934;BME280;7039;52.168;9.866;2023-06-19T03:47:26;100062.69;;;23.23;54.14
13934;BME280;7039;52.168;9.866;2023-06-19T03:49:53;100053.38;;;23.19;54.46
13934;BME280;7039;52.168;9.866;2023-06-19T03:52:19;100055.19;;;23.27;53.46
13934;BME280;7039;52.168;9.866;2023-06-19T03:54:46;100057.84;;;23.35;51.58
13934;BME280;7039;52.168;9.866;2023-06-19T03:57:14;100058.50;;;23.37;51.15
13934;BME280;7039;52.168;9.866;2023-06-19T03:59:40;100061.63;;;23.49;50.35
13934;BME280;7039;52.168;9.866;2023-06-19T04:02:07;100064.59;;;23.62;50.53
13934;BME280;7039;52.168;9.866;2023-06-19T04:04:33;100067.72;;;23.74;48.78
13934;BME280;7039;52.168;9.866;2023-06-19T04:07:00;100060.22;;;23.77;49.92
13934;BME280;7039;52.168;9.866;2023-06-19T04:09:26;100061.38;;;23.83;49.26
13934;BME280;7039;52.168;9.866;2023-06-19T04:11:53;100056.22;;;23.82;48.40
13934;BME280;7039;52.168;9.866;2023-06-19T04:14:20;100066.47;;;24.01;47.97
13934;BME280;7039;52.168;9.866;2023-06-19T04:16:48;100061.06;;;24.09;48.49
13934;BME280;7039;52.168;9.866;2023-06-19T04:19:15;100060.44;;;24.07;47.89
13934;BME280;7039;52.168;9.866;2023-06-19T04:21:41;100062.75;;;24.10;48.17
13934;BME280;7039;52.168;9.866;2023-06-19T04:24:08;100055.44;;;24.04;48.96
13934;BME280;7039;52.168;9.866;2023-06-19T04:26:34;100056.25;;;24.05;49.25
13934;BME280;7039;52.168;9.866;2023-06-19T04:29:01;100049.03;;;23.82;48.91
13934;BME280;7039;52.168;9.866;2023-06-19T04:31:28;100070.34;;;23.82;49.82
13934;BME280;7039;52.168;9.866;2023-06-19T04:33:56;100071.34;;;23.89;49.28
13934;BME280;7039;52.168;9.866;2023-06-19T04:36:22;100079.81;;;23.93;48.31
13934;BME280;7039;52.168;9.866;2023-06-19T04:38:49;100075.94;;;24.04;47.71
13934;BME280;7039;52.168;9.866;2023-06-19T04:41:16;100076.75;;;24.04;48.16
13934;BME280;7039;52.168;9.866;2023-06-19T04:43:43;100080.19;;;24.21;46.99
13934;BME280;7039;52.168;9.866;2023-06-19T04:46:09;100073.56;;;24.09;47.52
13934;BME280;7039;52.168;9.866;2023-06-19T04:48:37;100074.72;;;24.14;47.90
13934;BME280;7039;52.168;9.866;2023-06-19T04:51:05;100070.25;;;24.07;48.03
13934;BME280;7039;52.168;9.866;2023-06-19T04:53:32;100072.13;;;23.98;48.00
13934;BME280;7039;52.168;9.866;2023-06-19T04:55:58;100060.63;;;23.97;48.13
13934;BME280;7039;52.168;9.866;2023-06-19T04:58:24;100066.47;;;24.01;48.29
13934;BME280;7039;52.168;9.866;2023-06-19T05:00:51;100067.72;;;24.13;48.12
13934;BME280;7039;52.168;9.866;2023-06-19T05:03:17;100064.34;;;24.20;48.12
13934;BME280;7039;52.168;9.866;2023-06-19T05:05:46;100060.66;;;24.21;48.77
13934;BME280;7039;52.168;9.866;2023-06-19T05:08:12;100059.91;;;24.12;47.96
13934;BME280;7039;52.168;9.866;2023-06-19T05:10:39;100049.16;;;23.97;48.49
13934;BME280;7039;52.168;9.866;2023-06-19T05:13:05;100057.69;;;24.24;48.59
13934;BME280;7039;52.168;9.866;2023-06-19T05:15:32;100063.81;;;24.24;48.51
13934;BME280;7039;52.168;9.866;2023-06-19T05:17:58;100062.22;;;24.15;48.69
13934;BME280;7039;52.168;9.866;2023-06-19T05:20:25;100065.41;;;24.10;49.30
13934;BME280;7039;52.168;9.866;2023-06-19T05:22:53;100074.31;;;24.26;48.67
13934;BME280;7039;52.168;9.866;2023-06-19T05:25:19;100081.75;;;24.07;49.06
13934;BME280;7039;52.168;9.866;2023-06-19T05:27:46;100091.25;;;24.02;48.61
13934;BME280;7039;52.168;9.866;2023-06-19T05:30:12;100099.13;;;24.26;49.09
13934;BME280;7039;52.168;9.866;2023-06-19T05:32:39;100103.69;;;24.49;49.57
13934;BME280;7039;52.168;9.866;2023-06-19T05:35:06;100109.56;;;24.67;49.58
13934;BME280;7039;52.168;9.866;2023-06-19T05:37:33;100098.94;;;24.82;49.55
13934;BME280;7039;52.168;9.866;2023-06-19T05:40:00;100102.16;;;24.77;49.78
13934;BME280;7039;52.168;9.866;2023-06-19T05:42:29;100106.25;;;24.88;50.70
13934;BME280;7039;52.168;9.866;2023-06-19T05:44:55;100110.28;;;24.84;50.22
13934;BME280;7039;52.168;9.866;2023-06-19T05:47:21;100121.22;;;25.12;50.19
13934;BME280;7039;52.168;9.866;2023-06-19T05:49:51;100113.13;;;25.06;50.13
13934;BME280;7039;52.168;9.866;2023-06-19T05:52:17;100106.59;;;24.85;52.41
13934;BME280;7039;52.168;9.866;2023-06-19T05:54:44;100109.81;;;24.80;51.66
13934;BME280;7039;52.168;9.866;2023-06-19T05:57:11;100116.38;;;24.93;50.31
13934;BME280;7039;52.168;9.866;2023-06-19T05:59:38;100113.16;;;24.97;51.89
13934;BME280;7039;52.168;9.866;2023-06-19T06:02:05;100116.50;;;25.23;48.60
13934;BME280;7039;52.168;9.866;2023-06-19T06:04:33;100120.41;;;25.50;50.27
13934;BME280;7039;52.168;9.866;2023-06-19T06:06:59;100115.31;;;25.55;48.53
13934;BME280;7039;52.168;9.866;2023-06-19T06:09:26;100122.19;;;25.87;48.42
13934;BME280;7039;52.168;9.866;2023-06-19T06:11:53;100120.06;;;25.82;47.54
13934;BME280;7039;52.168;9.866;2023-06-19T06:14:20;100122.25;;;26.09;47.61
13934;BME280;7039;52.168;9.866;2023-06-19T06:16:47;100128.50;;;26.16;47.71
13934;BME280;7039;52.168;9.866;2023-06-19T06:19:13;100128.41;;;26.24;47.83
13934;BME280;7039;52.168;9.866;2023-06-19T06:21:40;100127.03;;;26.28;47.95
13934;BME280;7039;52.168;9.866;2023-06-19T06:24:06;100126.06;;;25.99;49.22
13934;BME280;7039;52.168;9.866;2023-06-19T06:26:33;100134.06;;;26.14;49.14
13934;BME280;7039;52.168;9.866;2023-06-19T06:29:00;100128.16;;;26.19;49.17
13934;BME280;7039;52.168;9.866;2023-06-19T06:31:28;100145.84;;;26.20;48.16
13934;BME280;7039;52.168;9.866;2023-06-19T06:33:55;100142.91;;;26.15;48.34
13934;BME280;7039;52.168;9.866;2023-06-19T06:36:21;100145.50;;;26.23;49.07
13934;BME280;7039;52.168;9.866;2023-06-19T06:38:48;100153.31;;;26.24;48.91
13934;BME280;7039;52.168;9.866;2023-06-19T06:41:14;100155.72;;;26.19;48.92
13934;BME280;7039;52.168;9.866;2023-06-19T06:43:40;100152.41;;;26.02;50.47
13934;BME280;7039;52.168;9.866;2023-06-19T06:46:08;100145.22;;;25.88;50.56
13934;BME280;7039;52.168;9.866;2023-06-19T06:48:36;100150.47;;;26.11;51.17
13934;BME280;7039;52.168;9.866;2023-06-19T06:51:03;100149.53;;;26.04;49.96
13934;BME280;7039;52.168;9.866;2023-06-19T06:53:29;100159.25;;;26.05;49.35
13934;BME280;7039;52.168;9.866;2023-06-19T06:55:57;100162.63;;;26.29;49.53
13934;BME280;7039;52.168;9.866;2023-06-19T06:58:24;100158.91;;;26.30;48.94
13934;BME280;7039;52.168;9.866;2023-06-19T07:00:52;100177.63;;;26.44;48.23
13934;BME280;7039;52.168;9.866;2023-06-19T07:03:18;100164.50;;;26.50;48.80
13934;BME280;7039;52.168;9.866;2023-06-19T07:05:47;100176.09;;;26.72;49.05
13934;BME280;7039;52.168;9.866;2023-06-19T07:08:13;100171.38;;;26.74;48.71
13934;BME280;7039;52.168;9.866;2023-06-19T07:10:40;100174.72;;;26.76;49.18
13934;BME280;7039;52.168;9.866;2023-06-19T07:13:06;100174.31;;;26.79;47.85
13934;BME280;7039;52.168;9.866;2023-06-19T07:15:33;100176.88;;;26.51;48.45
13934;BME280;7039;52.168;9.866;2023-06-19T07:17:59;100180.91;;;26.61;47.97
13934;BME280;7039;52.168;9.866;2023-06-19T07:20:26;100179.03;;;26.77;47.64
13934;BME280;7039;52.168;9.866;2023-06-19T07:22:54;100193.38;;;26.91;47.08
13934;BME280;7039;52.168;9.866;2023-06-19T07:25:21;100184.41;;;26.98;47.52
13934;BME280;7039;52.168;9.866;2023-06-19T07:27:49;100183.38;;;26.78;47.56
13934;BME280;7039;52.168;9.866;2023-06-19T07:30:16;100179.66;;;26.79;49.19
13934;BME280;7039;52.168;9.866;2023-06-19T07:32:43;100177.06;;;26.49;50.31
13934;BME280;7039;52.168;9.866;2023-06-19T07:35:10;100180.34;;;26.66;50.89
13934;BME280;7039;52.168;9.866;2023-06-19T07:37:37;100179.81;;;26.92;49.08
13934;BME280;7039;52.168;9.866;2023-06-19T07:40:06;100183.31;;;26.71;49.55
13934;BME280;7039;52.168;9.866;2023-06-19T07:42:32;100182.88;;;26.89;48.78
13934;BME280;7039;52.168;9.866;2023-06-19T07:44:59;100187.56;;;27.08;48.49
13934;BME280;7039;52.168;9.866;2023-06-19T07:47:26;100184.66;;;27.03;48.38
13934;BME280;7039;52.168;9.866;2023-06-19T07:49:53;100183.81;;;26.81;48.76
13934;BME280;7039;52.168;9.866;2023-06-19T07:52:19;100187.03;;;26.92;48.53
13934;BME280;7039;52.168;9.866;2023-06-19T07:54:53;100178.16;;;26.91;48.14
13934;BME280;7039;52.168;9.866;2023-06-19T07:57:23;100187.69;;;26.57;48.91
13934;BME280;7039;52.168;9.866;2023-06-19T07:59:54;100179.91;;;26.48;48.92
13934;BME280;7039;52.168;9.866;2023-06-19T08:02:21;100174.81;;;26.67;48.90
13934;BME280;7039;52.168;9.866;2023-06-19T08:04:47;100174.56;;;26.62;48.87
13934;BME280;7039;52.168;9.866;2023-06-19T08:07:14;100185.22;;;26.99;48.64
13934;BME280;7039;52.168;9.866;2023-06-19T08:09:40;100192.63;;;26.97;49.11
13934;BME280;7039;52.168;9.866;2023-06-19T08:12:07;100190.44;;;26.85;50.50
13934;BME280;7039;52.168;9.866;2023-06-19T08:14:35;100185.81;;;26.94;49.93
13934;BME280;7039;52.168;9.866;2023-06-19T08:17:04;100191.59;;;27.19;50.06
13934;BME280;7039;52.168;9.866;2023-06-19T08:19:30;100197.75;;;27.35;50.17
13934;BME280;7039;52.168;9.866;2023-06-19T08:21:56;100188.44;;;27.31;50.13
13934;BME280;7039;52.168;9.866;2023-06-19T08:24:23;100183.78;;;27.39;51.00
13934;BME280;7039;52.168;9.866;2023-06-19T08:26:50;100184.06;;;27.29;49.47
13934;BME280;7039;52.168;9.866;2023-06-19T08:29:17;100188.38;;;27.24;50.37
13934;BME280;7039;52.168;9.866;2023-06-19T08:31:45;100192.50;;;27.26;50.36
13934;BME280;7039;52.168;9.866;2023-06-19T08:34:11;100194.13;;;27.49;49.78
13934;BME280;7039;52.168;9.866;2023-06-19T08:36:38;100190.38;;;27.72;50.13
13934;BME280;7039;52.168;9.866;2023-06-19T08:39:05;100185.63;;;27.67;48.84
13934;BME280;7039;52.168;9.866;2023-06-19T08:41:33;100190.50;;;27.85;49.00
13934;BME280;7039;52.168;9.866;2023-06-19T08:44:00;100185.84;;;27.72;50.21
13934;BME280;7039;52.168;9.866;2023-06-19T08:46:28;100181.75;;;27.76;49.20
13934;BME280;7039;52.168;9.866;2023-06-19T08:48:56;100179.97;;;27.55;51.82
13934;BME280;7039;52.168;9.866;2023-06-19T08:51:23;100184.41;;;27.69;49.85
13934;BME280;7039;52.168;9.866;2023-06-19T08:53:54;100187.88;;;27.92;50.76
13934;BME280;7039;52.168;9.866;2023-06-19T08:56:21;100186.94;;;28.13;51.36
13934;BME280;7039;52.168;9.866;2023-06-19T08:58:48;100180.28;;;28.02;49.88
13934;BME280;7039;52.168;9.866;2023-06-19T09:01:17;100193.22;;;27.92;51.24
13934;BME280;7039;52.168;9.866;2023-06-19T09:03:44;100188.69;;;27.92;51.93
13934;BME280;7039;52.168;9.866;2023-06-19T09:06:14;100190.44;;;28.48;51.83
13934;BME280;7039;52.168;9.866;2023-06-19T09:08:41;100186.41;;;28.30;50.29
13934;BME280;7039;52.168;9.866;2023-06-19T09:11:07;100184.78;;;28.43;50.02
13934;BME280;7039;52.168;9.866;2023-06-19T09:13:34;100196.69;;;28.62;49.99
13934;BME280;7039;52.168;9.866;2023-06-19T09:16:02;100184.53;;;28.86;50.30
13934;BME280;7039;52.168;9.866;2023-06-19T09:18:29;100198.41;;;28.96;49.92
13934;BME280;7039;52.168;9.866;2023-06-19T09:20:56;100183.31;;;28.88;50.52
13934;BME280;7039;52.168;9.866;2023-06-19T09:23:24;100178.78;;;28.96;49.10
13934;BME280;7039;52.168;9.866;2023-06-19T09:25:52;100179.41;;;28.36;51.40
13934;BME280;7039;52.168;9.866;2023-06-19T09:28:21;100189.50;;;28.76;50.57
13934;BME280;7039;52.168;9.866;2023-06-19T09:30:57;100191.94;;;28.77;51.17
13934;BME280;7039;52.168;9.866;2023-06-19T09:33:26;100190.38;;;29.23;50.47
13934;BME280;7039;52.168;9.866;2023-06-19T09:35:54;100186.50;;;29.32;49.61
13934;BME280;7039;52.168;9.866;2023-06-19T09:38:21;100194.53;;;29.39;50.30
13934;BME280;7039;52.168;9.866;2023-06-19T09:40:52;100195.56;;;29.84;48.92
13934;BME280;7039;52.168;9.866;2023-06-19T09:43:23;100195.38;;;29.39;48.89
13934;BME280;7039;52.168;9.866;2023-06-19T09:45:50;100193.31;;;29.34;49.30
13934;BME280;7039;52.168;9.866;2023-06-19T09:48:27;100194.94;;;29.22;49.92
13934;BME280;7039;52.168;9.866;2023-06-19T09:51:17;100203.34;;;28.92;50.53
13934;BME280;7039;52.168;9.866;2023-06-19T09:53:44;100200.59;;;28.66;49.93
13934;BME280;7039;52.168;9.866;2023-06-19T09:56:14;100204.22;;;29.13;50.33
13934;BME280;7039;52.168;9.866;2023-06-19T09:58:41;100216.44;;;29.15;49.58
13934;BME280;7039;52.168;9.866;2023-06-19T10:01:09;100215.72;;;28.80;50.40
13934;BME280;7039;52.168;9.866;2023-06-19T10:03:36;100222.09;;;28.79;50.88
13934;BME280;7039;52.168;9.866;2023-06-19T10:06:04;100210.63;;;29.05;50.53
13934;BME280;7039;52.168;9.866;2023-06-19T10:08:38;100213.56;;;29.24;50.53
13934;BME280;7039;52.168;9.866;2023-06-19T10:11:05;100213.66;;;28.76;50.52
13934;BME280;7039;52.168;9.866;2023-06-19T10:13:37;100219.09;;;29.09;51.48
13934;BME280;7039;52.168;9.866;2023-06-19T10:16:05;100226.91;;;29.04;51.39
13934;BME280;7039;52.168;9.866;2023-06-19T10:18:33;100226.28;;;29.02;51.35
13934;BME280;7039;52.168;9.866;2023-06-19T10:21:15;100233.03;;;28.71;51.53
13934;BME280;7039;52.168;9.866;2023-06-19T10:23:42;100224.03;;;28.44;51.13
13934;BME280;7039;52.168;9.866;2023-06-19T10:26:15;100228.09;;;28.81;51.35
13934;BME280;7039;52.168;9.866;2023-06-19T10:28:46;100227.28;;;28.81;51.56
13934;BME280;7039;52.168;9.866;2023-06-19T10:31:13;100227.28;;;28.81;50.88
13934;BME280;7039;52.168;9.866;2023-06-19T10:33:39;100221.78;;;29.09;50.75
13934;BME280;7039;52.168;9.866;2023-06-19T10:36:13;100227.00;;;29.30;50.95
13934;BME280;7039;52.168;9.866;2023-06-19T10:38:41;100230.06;;;29.34;50.56
13934;BME280;7039;52.168;9.866;2023-06-19T10:41:14;100235.34;;;28.87;52.24
13934;BME280;7039;52.168;9.866;2023-06-19T10:43:52;100225.16;;;28.63;51.45
13934;BME280;7039;52.168;9.866;2023-06-19T10:46:21;100227.72;;;28.84;51.61
13934;BME280;7039;52.168;9.866;2023-06-19T10:48:48;100229.25;;;29.33;50.07
13934;BME280;7039;52.168;9.866;2023-06-19T10:51:18;100221.63;;;29.30;50.85
13934;BME280;7039;52.168;9.866;2023-06-19T10:53:44;100228.63;;;29.45;50.22
13934;BME280;7039;52.168;9.866;2023-06-19T10:56:11;100226.78;;;29.45;51.53
13934;BME280;7039;52.168;9.866;2023-06-19T10:58:37;100231.06;;;29.06;51.99
13934;BME280;7039;52.168;9.866;2023-06-19T11:01:05;100222.66;;;29.56;50.84
13934;BME280;7039;52.168;9.866;2023-06-19T11:03:32;100216.88;;;29.72;50.01
13934;BME280;7039;52.168;9.866;2023-06-19T11:05:59;100224.09;;;29.72;51.28
13934;BME280;7039;52.168;9.866;2023-06-19T11:08:26;100224.41;;;30.35;49.20
13934;BME280;7039;52.168;9.866;2023-06-19T11:10:52;100214.28;;;30.17;48.76
13934;BME280;7039;52.168;9.866;2023-06-19T11:13:19;100219.44;;;30.26;49.94
13934;BME280;7039;52.168;9.866;2023-06-19T11:15:48;100222.00;;;29.94;50.19
13934;BME280;7039;52.168;9.866;2023-06-19T11:18:17;100230.50;;;29.64;50.26
13934;BME280;7039;52.168;9.866;2023-06-19T11:20:44;100229.28;;;29.80;48.83
13934;BME280;7039;52.168;9.866;2023-06-19T11:23:12;100222.47;;;29.71;49.63
13934;BME280;7039;52.168;9.866;2023-06-19T11:25:40;100219.16;;;29.75;48.63
13934;BME280;7039;52.168;9.866;2023-06-19T11:28:11;100216.47;;;29.69;49.31
13934;BME280;7039;52.168;9.866;2023-06-19T11:30:39;100231.06;;;30.06;49.38
13934;BME280;7039;52.168;9.866;2023-06-19T11:33:16;100232.28;;;30.30;47.84
13934;BME280;7039;52.168;9.866;2023-06-19T11:35:47;100231.25;;;30.11;48.61
13934;BME280;7039;52.168;9.866;2023-06-19T11:38:17;100239.56;;;30.16;47.81
13934;BME280;7039;52.168;9.866;2023-06-19T11:40:43;100239.13;;;30.13;47.62
13934;BME280;7039;52.168;9.866;2023-06-19T11:43:11;100239.94;;;30.27;47.64
13934;BME280;7039;52.168;9.866;2023-06-19T11:45:48;100241.00;;;30.12;47.00
13934;BME280;7039;52.168;9.866;2023-06-19T11:48:21;100235.91;;;29.71;48.04
13934;BME280;7039;52.168;9.866;2023-06-19T11:50:48;100231.31;;;29.65;47.43
13934;BME280;7039;52.168;9.866;2023-06-19T11:53:14;100237.88;;;30.15;47.80
13934;BME280;7039;52.168;9.866;2023-06-19T11:55:41;100235.19;;;30.15;48.48
13934;BME280;7039;52.168;9.866;2023-06-19T11:58:09;100225.09;;;29.91;47.54
13934;BME280;7039;52.168;9.866;2023-06-19T12:00:36;100232.13;;;30.12;47.30
13934;BME280;7039;52.168;9.866;2023-06-19T12:03:02;100220.97;;;29.95;47.86
13934;BME280;7039;52.168;9.866;2023-06-19T12:05:30;100239.13;;;30.78;47.59
13934;BME280;7039;52.168;9.866;2023-06-19T12:07:57;100231.84;;;30.33;46.22
13934;BME280;7039;52.168;9.866;2023-06-19T12:10:23;100234.91;;;30.95;45.22
13934;BME280;7039;52.168;9.866;2023-06-19T12:12:50;100232.56;;;30.60;45.87
13934;BME280;7039;52.168;9.866;2023-06-19T12:15:16;100238.41;;;31.03;45.45
13934;BME280;7039;52.168;9.866;2023-06-19T12:17:43;100232.41;;;30.55;45.76
13934;BME280;7039;52.168;9.866;2023-06-19T12:20:10;100227.72;;;30.24;45.61
13934;BME280;7039;52.168;9.866;2023-06-19T12:22:40;100234.38;;;30.15;45.74
13934;BME280;7039;52.168;9.866;2023-06-19T12:25:08;100223.69;;;29.82;46.29
13934;BME280;7039;52.168;9.866;2023-06-19T12:27:35;100223.81;;;30.13;46.88
13934;BME280;7039;52.168;9.866;2023-06-19T12:30:01;100235.38;;;30.34;46.32
13934;BME280;7039;52.168;9.866;2023-06-19T12:32:28;100231.34;;;31.01;45.91
13934;BME280;7039;52.168;9.866;2023-06-19T12:34:55;100221.31;;;30.77;46.05
13934;BME280;7039;52.168;9.866;2023-06-19T12:37:21;100227.41;;;30.59;45.53
13934;BME280;7039;52.168;9.866;2023-06-19T12:39:50;100230.91;;;30.66;45.44
13934;BME280;7039;52.168;9.866;2023-06-19T12:42:16;100240.81;;;30.72;44.89
13934;BME280;7039;52.168;9.866;2023-06-19T12:44:43;100235.50;;;30.97;45.95
13934;BME280;7039;52.168;9.866;2023-06-19T12:47:10;100250.50;;;30.87;45.06
13934;BME280;7039;52.168;9.866;2023-06-19T12:49:37;100248.13;;;31.04;44.97
13934;BME280;7039;52.168;9.866;2023-06-19T12:52:04;100244.06;;;31.19;43.86
13934;BME280;7039;52.168;9.866;2023-06-19T12:54:31;100243.31;;;31.88;44.06
13934;BME280;7039;52.168;9.866;2023-06-19T12:56:59;100236.72;;;31.33;43.54
13934;BME280;7039;52.168;9.866;2023-06-19T12:59:25;100235.47;;;31.04;43.22
13934;BME280;7039;52.168;9.866;2023-06-19T13:01:52;100251.28;;;31.57;43.99